createdAt,value
2023-06-18T00:00:59.434Z,2.08
2023-06-18T00:03:47.802Z,2.00
2023-06-18T00:06:35.637Z,1.80
2023-06-18T00:09:25.104Z,2.17
2023-06-18T00:12:13.095Z,1.67
2023-06-18T00:15:01.123Z,2.17
2023-06-18T00:17:50.411Z,2.22
2023-06-18T00:20:38.460Z,2.47
2023-06-18T00:23:26.431Z,2.58
2023-06-18T00:26:14.396Z,1.92
2023-06-18T00:29:02.306Z,2.30
2023-06-18T00:31:50.247Z,3.05
2023-06-18T00:34:42.946Z,2.70
2023-06-18T00:37:31.203Z,2.03
2023-06-18T00:40:19.017Z,3.50
2023-06-18T00:43:08.052Z,4.38
2023-06-18T00:45:55.999Z,4.75
2023-06-18T00:48:46.348Z,2.70
2023-06-18T00:51:36.159Z,2.53
2023-06-18T00:54:24.485Z,2.70
2023-06-18T00:57:15.449Z,2.53
2023-06-18T01:00:06.224Z,2.67
2023-06-18T01:02:54.976Z,3.25
2023-06-18T01:05:43.462Z,3.00
2023-06-18T01:08:34.289Z,2.80
2023-06-18T01:11:23.120Z,2.95
2023-06-18T01:14:11.378Z,3.45
2023-06-18T01:17:01.074Z,3.38
2023-06-18T01:19:53.134Z,3.80
2023-06-18T01:22:47.533Z,4.15
2023-06-18T01:25:38.793Z,5.18
2023-06-18T01:28:30.397Z,4.05
2023-06-18T01:31:21.963Z,4.78
2023-06-18T01:34:10.094Z,3.88
2023-06-18T01:37:04.989Z,4.38
2023-06-18T01:39:59.036Z,3.70
2023-06-18T01:42:53.602Z,4.38
2023-06-18T01:48:37.964Z,4.15
2023-06-18T01:54:16.216Z,3.22
2023-06-18T01:57:05.151Z,4.45
2023-06-18T01:59:54.250Z,4.00
2023-06-18T02:02:42.375Z,4.10
2023-06-18T02:05:30.675Z,3.58
2023-06-18T02:08:18.726Z,3.85
2023-06-18T02:11:06.439Z,3.97
2023-06-18T02:13:54.253Z,3.65
2023-06-18T02:16:44.091Z,4.05
2023-06-18T02:19:32.049Z,4.13
2023-06-18T02:22:19.883Z,4.22
2023-06-18T02:25:08.340Z,4.50
2023-06-18T02:27:56.534Z,4.35
2023-06-18T02:30:44.373Z,4.95
2023-06-18T02:33:33.770Z,3.55
2023-06-18T02:36:21.601Z,4.43
2023-06-18T02:39:10.088Z,3.90
2023-06-18T02:41:57.779Z,3.97
2023-06-18T02:44:46.913Z,4.13
2023-06-18T02:47:34.640Z,4.03
2023-06-18T02:50:24.166Z,5.18
2023-06-18T02:53:12.065Z,5.30
2023-06-18T02:55:59.763Z,5.00
2023-06-18T02:58:50.564Z,5.35
2023-06-18T03:01:38.612Z,4.65
2023-06-18T03:04:26.595Z,5.20
2023-06-18T03:07:15.904Z,5.38
2023-06-18T03:10:04.218Z,4.90
2023-06-18T03:12:52.030Z,5.10
2023-06-18T03:15:39.838Z,5.47
2023-06-18T03:18:27.637Z,5.25
2023-06-18T03:21:16.457Z,5.13
2023-06-18T03:24:06.644Z,4.88
2023-06-18T03:26:54.609Z,5.20
2023-06-18T03:29:42.979Z,4.22
2023-06-18T03:32:30.927Z,4.93
2023-06-18T03:35:19.776Z,5.32
2023-06-18T03:38:07.592Z,5.80
2023-06-18T03:40:57.026Z,5.57
2023-06-18T03:43:44.772Z,5.57
2023-06-18T03:46:33.321Z,5.50
2023-06-18T03:49:21.045Z,4.97
2023-06-18T03:52:09.608Z,5.35
2023-06-18T03:54:57.415Z,6.15
2023-06-18T03:57:46.766Z,6.00
2023-06-18T04:00:35.822Z,5.85
2023-06-18T04:03:23.996Z,5.63
2023-06-18T04:06:12.398Z,5.15
2023-06-18T04:09:00.161Z,4.82
2023-06-18T04:11:47.955Z,5.72
2023-06-18T04:14:37.739Z,5.40
2023-06-18T04:17:27.982Z,5.35
2023-06-18T04:20:16.036Z,7.10
2023-06-18T04:23:04.110Z,5.28
2023-06-18T04:25:52.324Z,5.53
2023-06-18T04:28:40.061Z,6.32
2023-06-18T04:31:29.363Z,6.00
2023-06-18T04:34:17.549Z,7.20
2023-06-18T04:37:05.770Z,7.00
2023-06-18T04:39:53.542Z,7.68
2023-06-18T04:42:41.335Z,13.35
2023-06-18T04:45:29.049Z,11.05
2023-06-18T04:48:18.773Z,7.03
2023-06-18T04:51:06.573Z,9.10
2023-06-18T04:53:54.390Z,8.07
2023-06-18T04:56:42.199Z,6.50
2023-06-18T04:59:30.142Z,6.43
2023-06-18T05:02:19.163Z,6.82
2023-06-18T05:05:09.462Z,6.28
2023-06-18T05:07:57.806Z,8.13
2023-06-18T05:10:45.654Z,6.82
2023-06-18T05:13:33.454Z,5.70
2023-06-18T05:16:21.276Z,6.45
2023-06-18T05:19:09.091Z,5.38
2023-06-18T05:21:59.263Z,6.97
2023-06-18T05:24:47.453Z,6.72
2023-06-18T05:27:35.269Z,6.43
2023-06-18T05:30:23.765Z,10.70
2023-06-18T05:33:11.862Z,6.35
2023-06-18T05:36:00.307Z,7.30
2023-06-18T05:38:49.655Z,8.05
2023-06-18T05:41:37.361Z,8.07
2023-06-18T05:44:25.296Z,13.15
2023-06-18T05:47:13.059Z,8.98
2023-06-18T05:50:01.013Z,7.05
2023-06-18T05:52:49.957Z,7.40
2023-06-18T05:55:39.066Z,7.40
2023-06-18T05:58:27.134Z,7.60
2023-06-18T06:01:15.586Z,7.60
2023-06-18T06:04:03.894Z,8.50
2023-06-18T06:06:51.760Z,7.35
2023-06-18T06:09:39.641Z,8.07
2023-06-18T06:12:28.790Z,7.70
2023-06-18T06:15:17.126Z,32.17
2023-06-18T06:18:05.000Z,9.55
2023-06-18T06:20:53.005Z,8.23
2023-06-18T06:23:41.243Z,8.60
2023-06-18T06:26:29.037Z,9.80
2023-06-18T06:29:18.192Z,9.38
2023-06-18T06:32:06.886Z,9.00
2023-06-18T06:34:54.613Z,9.82
2023-06-18T06:37:42.288Z,10.18
2023-06-18T06:40:30.267Z,9.88
2023-06-18T06:43:17.989Z,10.05
2023-06-18T06:46:07.417Z,10.10
2023-06-18T06:48:55.149Z,10.30
2023-06-18T06:51:44.361Z,9.75
2023-06-18T06:54:32.386Z,9.68
2023-06-18T06:57:20.158Z,10.70
2023-06-18T07:00:09.573Z,10.98
2023-06-18T07:02:58.704Z,9.00
2023-06-18T07:05:46.664Z,10.13
2023-06-18T07:08:34.433Z,9.55
2023-06-18T07:11:22.737Z,9.73
2023-06-18T07:14:10.511Z,9.68
2023-06-18T07:16:58.490Z,8.73
2023-06-18T07:19:47.654Z,8.77
2023-06-18T07:22:35.784Z,8.60
2023-06-18T07:25:23.470Z,8.02
2023-06-18T07:28:11.416Z,8.38
2023-06-18T07:30:59.127Z,8.68
2023-06-18T07:33:46.890Z,6.75
2023-06-18T07:36:36.250Z,8.48
2023-06-18T07:39:23.970Z,7.85
2023-06-18T07:42:13.260Z,7.00
2023-06-18T07:45:01.331Z,6.57
2023-06-18T07:47:49.212Z,6.15
2023-06-18T07:50:37.286Z,5.70
2023-06-18T07:53:26.891Z,6.32
2023-06-18T07:56:14.895Z,5.70
2023-06-18T07:59:02.979Z,5.43
2023-06-18T08:01:51.539Z,6.53
2023-06-18T08:04:40.062Z,5.90
2023-06-18T08:07:28.239Z,5.93
2023-06-18T08:10:17.270Z,5.78
2023-06-18T08:13:05.077Z,6.38
2023-06-18T08:15:52.768Z,4.63
2023-06-18T08:18:40.649Z,4.85
2023-06-18T08:21:28.399Z,5.25
2023-06-18T08:24:16.406Z,4.50
2023-06-18T08:27:06.367Z,6.20
2023-06-18T08:29:54.592Z,5.82
2023-06-18T08:32:42.332Z,5.53
2023-06-18T08:35:30.336Z,5.15
2023-06-18T08:38:18.086Z,4.70
2023-06-18T08:41:06.942Z,5.50
2023-06-18T08:43:56.145Z,4.75
2023-06-18T08:46:45.028Z,4.32
2023-06-18T08:49:33.139Z,5.22
2023-06-18T08:52:21.929Z,4.50
2023-06-18T08:55:14.948Z,4.72
2023-06-18T08:58:07.656Z,4.80
2023-06-18T09:00:56.876Z,4.15
2023-06-18T09:03:45.349Z,4.85
2023-06-18T09:06:33.320Z,5.32
2023-06-18T09:09:22.213Z,4.93
2023-06-18T09:12:11.499Z,5.10
2023-06-18T09:14:59.562Z,5.20
2023-06-18T09:17:52.956Z,5.28
2023-06-18T09:20:41.696Z,5.73
2023-06-18T09:23:29.460Z,5.32
2023-06-18T09:26:18.823Z,4.93
2023-06-18T09:29:07.291Z,4.70
2023-06-18T09:31:54.892Z,5.40
2023-06-18T09:34:45.383Z,4.53
2023-06-18T09:37:34.158Z,5.03
2023-06-18T09:40:23.852Z,4.68
2023-06-18T09:43:12.596Z,5.07
2023-06-18T09:46:00.482Z,5.43
2023-06-18T09:48:49.035Z,5.05
2023-06-18T09:51:42.237Z,5.30
2023-06-18T09:54:41.314Z,5.30
2023-06-18T09:57:29.010Z,4.82
2023-06-18T10:00:18.094Z,5.50
2023-06-18T10:03:07.581Z,4.95
2023-06-18T10:05:55.631Z,4.82
2023-06-18T10:08:46.560Z,6.72
2023-06-18T10:11:35.650Z,4.45
2023-06-18T10:14:25.366Z,4.47
2023-06-18T10:17:21.355Z,4.45
2023-06-18T10:20:11.448Z,4.95
2023-06-18T10:23:02.669Z,4.88
2023-06-18T10:25:52.683Z,4.10
2023-06-18T10:28:40.568Z,3.50
2023-06-18T10:31:28.796Z,3.17
2023-06-18T10:34:17.315Z,4.13
2023-06-18T10:37:06.197Z,4.45
2023-06-18T10:39:55.075Z,4.65
2023-06-18T10:42:49.973Z,3.97
2023-06-18T10:45:38.223Z,4.05
2023-06-18T10:48:28.987Z,4.88
2023-06-18T10:51:18.603Z,5.20
2023-06-18T10:54:23.419Z,4.57
2023-06-18T10:57:12.648Z,5.25
2023-06-18T11:00:02.030Z,4.47
2023-06-18T11:02:58.818Z,4.40
2023-06-18T11:05:48.818Z,4.35
2023-06-18T11:08:38.715Z,4.57
2023-06-18T11:11:27.327Z,4.90
2023-06-18T11:14:22.220Z,4.43
2023-06-18T11:17:12.432Z,4.32
2023-06-18T11:20:00.930Z,3.78
2023-06-18T11:22:49.715Z,4.15
2023-06-18T11:25:37.631Z,4.13
2023-06-18T11:28:26.994Z,6.05
2023-06-18T11:31:15.546Z,4.47
2023-06-18T11:34:08.941Z,4.03
2023-06-18T11:36:56.996Z,5.22
2023-06-18T11:39:45.131Z,4.85
2023-06-18T11:42:33.095Z,4.68
2023-06-18T11:45:22.650Z,4.15
2023-06-18T11:48:11.217Z,4.93
2023-06-18T11:51:00.335Z,4.80
2023-06-18T11:53:48.533Z,4.82
2023-06-18T11:56:36.448Z,5.10
2023-06-18T11:59:24.364Z,5.43
2023-06-18T12:02:13.459Z,5.10
2023-06-18T12:05:03.891Z,5.25
2023-06-18T12:07:53.279Z,5.30
2023-06-18T12:10:42.297Z,5.05
2023-06-18T12:13:36.407Z,5.43
2023-06-18T12:16:30.178Z,4.60
2023-06-18T12:19:20.300Z,4.35
2023-06-18T12:22:09.639Z,4.60
2023-06-18T12:24:58.959Z,4.20
2023-06-18T12:27:46.813Z,4.32
2023-06-18T12:30:37.749Z,4.35
2023-06-18T12:33:25.596Z,4.13
2023-06-18T12:36:13.682Z,4.80
2023-06-18T12:39:01.388Z,4.32
2023-06-18T12:41:50.670Z,4.13
2023-06-18T12:44:38.569Z,3.83
2023-06-18T12:47:26.808Z,4.13
2023-06-18T12:50:14.833Z,4.25
2023-06-18T12:53:16.787Z,4.50
2023-06-18T12:56:18.976Z,3.45
2023-06-18T12:59:17.745Z,4.47
2023-06-18T13:02:06.507Z,4.55
2023-06-18T13:04:55.120Z,3.70
2023-06-18T13:07:50.515Z,3.80
2023-06-18T13:10:38.270Z,3.90
2023-06-18T13:13:26.380Z,4.05
2023-06-18T13:16:15.774Z,3.88
2023-06-18T13:19:06.119Z,3.90
2023-06-18T13:21:54.729Z,3.67
2023-06-18T13:24:42.560Z,4.55
2023-06-18T13:27:30.746Z,3.38
2023-06-18T13:30:18.563Z,3.40
2023-06-18T13:33:08.163Z,3.97
2023-06-18T13:35:56.246Z,3.78
2023-06-18T13:38:44.303Z,3.90
2023-06-18T13:41:32.122Z,4.15
2023-06-18T13:44:20.121Z,3.78
2023-06-18T13:47:08.356Z,4.82
2023-06-18T13:49:57.405Z,3.85
2023-06-18T13:52:45.209Z,3.80
2023-06-18T13:55:32.905Z,3.92
2023-06-18T13:58:21.384Z,4.30
2023-06-18T14:01:09.345Z,6.07
2023-06-18T14:03:57.309Z,4.05
2023-06-18T14:06:47.039Z,4.68
2023-06-18T14:09:35.086Z,4.20
2023-06-18T14:12:22.955Z,3.97
2023-06-18T14:15:14.379Z,3.80
2023-06-18T14:18:02.211Z,3.97
2023-06-18T14:20:50.250Z,3.83
2023-06-18T14:23:40.989Z,3.83
2023-06-18T14:26:29.640Z,4.13
2023-06-18T14:29:17.858Z,5.43
2023-06-18T14:32:06.122Z,4.80
2023-06-18T14:34:54.164Z,5.00
2023-06-18T14:37:41.950Z,4.30
2023-06-18T14:40:31.326Z,4.50
2023-06-18T14:43:19.097Z,4.10
2023-06-18T14:46:06.974Z,4.43
2023-06-18T14:48:54.891Z,3.72
2023-06-18T14:51:42.608Z,3.63
2023-06-18T14:54:30.469Z,3.35
2023-06-18T14:57:20.468Z,3.72
2023-06-18T15:00:10.332Z,4.00
2023-06-18T15:02:58.235Z,3.35
2023-06-18T15:05:46.285Z,3.80
2023-06-18T15:08:35.377Z,3.90
2023-06-18T15:11:23.638Z,3.92
2023-06-18T15:14:12.860Z,3.70
2023-06-18T15:17:00.709Z,3.55
2023-06-18T15:19:56.380Z,3.92
2023-06-18T15:22:44.281Z,3.60
2023-06-18T15:25:32.313Z,3.40
2023-06-18T15:28:20.208Z,3.10
2023-06-18T15:31:11.848Z,2.67
2023-06-18T15:33:59.671Z,2.95
2023-06-18T15:36:47.396Z,4.78
2023-06-18T15:39:35.303Z,3.03
2023-06-18T15:42:23.139Z,2.50
2023-06-18T15:45:11.766Z,3.00
2023-06-18T15:48:00.853Z,3.50
2023-06-18T15:50:49.356Z,3.38
2023-06-18T15:53:37.125Z,2.70
2023-06-18T15:56:25.467Z,2.50
2023-06-18T15:59:14.010Z,3.05
2023-06-18T16:02:02.968Z,3.92
2023-06-18T16:04:52.295Z,3.17
2023-06-18T16:07:40.766Z,3.45
2023-06-18T16:10:28.822Z,2.83
2023-06-18T16:13:16.761Z,3.20
2023-06-18T16:16:04.727Z,3.60
2023-06-18T16:18:52.390Z,3.83
2023-06-18T16:21:41.768Z,3.45
2023-06-18T16:24:29.690Z,3.50
2023-06-18T16:27:17.650Z,2.95
2023-06-18T16:30:06.120Z,3.65
2023-06-18T16:32:53.984Z,3.33
2023-06-18T16:35:41.849Z,3.42
2023-06-18T16:38:31.196Z,3.70
2023-06-18T16:41:18.975Z,3.28
2023-06-18T16:44:06.824Z,3.15
2023-06-18T16:46:54.614Z,3.25
2023-06-18T16:49:42.370Z,4.43
2023-06-18T16:52:30.276Z,4.43
2023-06-18T16:55:19.912Z,3.92
2023-06-18T16:58:10.001Z,3.97
2023-06-18T17:00:57.806Z,3.97
2023-06-18T17:03:45.836Z,3.75
2023-06-18T17:06:34.750Z,3.55
2023-06-18T17:09:22.596Z,4.15
2023-06-18T17:12:11.735Z,3.78
2023-06-18T17:14:59.441Z,5.18
2023-06-18T17:17:47.159Z,6.82
2023-06-18T17:20:35.268Z,4.30
2023-06-18T17:23:22.999Z,4.13
2023-06-18T17:26:11.410Z,4.25
2023-06-18T17:29:00.830Z,4.10
2023-06-18T17:31:48.520Z,4.90
2023-06-18T17:34:36.424Z,4.45
2023-06-18T17:37:24.251Z,4.22
2023-06-18T17:40:12.588Z,4.38
2023-06-18T17:43:00.373Z,5.10
2023-06-18T17:45:49.610Z,4.57
2023-06-18T17:48:37.459Z,4.63
2023-06-18T17:51:25.303Z,3.95
2023-06-18T17:54:14.244Z,4.65
2023-06-18T17:57:02.184Z,5.20
2023-06-18T17:59:50.029Z,4.28
2023-06-18T18:02:39.168Z,5.20
2023-06-18T18:05:29.214Z,5.72
2023-06-18T18:08:17.008Z,5.22
2023-06-18T18:11:05.065Z,5.00
2023-06-18T18:13:52.796Z,6.30
2023-06-18T18:16:40.627Z,7.13
2023-06-18T18:19:29.838Z,6.53
2023-06-18T18:22:19.462Z,5.93
2023-06-18T18:25:07.908Z,5.82
2023-06-18T18:27:55.714Z,5.97
2023-06-18T18:30:45.109Z,5.72
2023-06-18T18:33:32.798Z,5.75
2023-06-18T18:36:22.187Z,5.38
2023-06-18T18:39:10.041Z,5.00
2023-06-18T18:41:58.022Z,4.60
2023-06-18T18:44:48.507Z,4.95
2023-06-18T18:47:36.333Z,5.22
2023-06-18T18:50:24.704Z,4.45
2023-06-18T18:53:14.032Z,4.97
2023-06-18T18:56:01.802Z,4.72
2023-06-18T18:58:50.041Z,4.93
2023-06-18T19:01:42.781Z,4.22
2023-06-18T19:04:30.794Z,4.30
2023-06-18T19:07:18.730Z,4.55
2023-06-18T19:10:11.916Z,4.90
2023-06-18T19:12:59.659Z,4.45
2023-06-18T19:15:47.583Z,4.13
2023-06-18T19:18:35.327Z,4.13
2023-06-18T19:21:23.291Z,4.57
2023-06-18T19:24:11.094Z,4.93
2023-06-18T19:27:00.466Z,5.07
2023-06-18T19:29:48.439Z,4.55
2023-06-18T19:32:36.514Z,4.85
2023-06-18T19:35:24.628Z,5.22
2023-06-18T19:38:12.648Z,4.68
2023-06-18T19:41:00.470Z,5.30
2023-06-18T19:43:49.743Z,5.50
2023-06-18T19:49:25.455Z,5.25
2023-06-18T19:52:13.478Z,6.38
2023-06-18T19:55:01.183Z,5.75
2023-06-18T19:57:49.333Z,5.57
2023-06-18T20:00:39.569Z,5.78
2023-06-18T20:03:27.493Z,5.72
2023-06-18T20:06:15.545Z,5.13
2023-06-18T20:09:03.371Z,5.10
2023-06-18T20:11:51.141Z,6.20
2023-06-18T20:14:38.861Z,6.25
2023-06-18T20:17:28.350Z,4.93
2023-06-18T20:20:18.266Z,5.22
2023-06-18T20:23:06.111Z,5.22
2023-06-18T20:25:53.829Z,5.82
2023-06-18T20:28:41.783Z,5.60
2023-06-18T20:31:29.836Z,5.57
2023-06-18T20:34:19.173Z,5.25
2023-06-18T20:37:08.037Z,5.32
2023-06-18T20:39:56.042Z,5.22
2023-06-18T20:42:43.824Z,4.72
2023-06-18T20:45:31.581Z,5.15
2023-06-18T20:48:19.488Z,5.55
2023-06-18T20:51:08.593Z,6.07
2023-06-18T20:53:59.771Z,5.78
2023-06-18T20:56:47.675Z,5.97
2023-06-18T20:59:35.680Z,6.35
2023-06-18T21:02:24.839Z,5.32
2023-06-18T21:05:13.375Z,6.43
2023-06-18T21:08:02.994Z,6.72
2023-06-18T21:10:50.953Z,6.15
2023-06-18T21:13:39.101Z,6.25
2023-06-18T21:16:27.262Z,6.88
2023-06-18T21:19:15.599Z,6.78
2023-06-18T21:22:15.591Z,8.13
2023-06-18T21:25:07.645Z,7.40
2023-06-18T21:28:03.263Z,8.13
2023-06-18T21:30:51.515Z,8.10
2023-06-18T21:33:39.695Z,8.13
2023-06-18T21:36:27.693Z,7.85
2023-06-18T21:39:15.638Z,8.02
2023-06-18T21:42:07.886Z,8.32
2023-06-18T21:44:55.881Z,8.75
2023-06-18T21:47:44.168Z,8.77
2023-06-18T21:50:34.701Z,8.00
2023-06-18T21:53:25.934Z,7.57
2023-06-18T21:56:14.009Z,8.93
2023-06-18T21:59:05.717Z,7.80
2023-06-18T22:01:55.383Z,8.38
2023-06-18T22:04:43.534Z,8.00
2023-06-18T22:07:32.931Z,8.52
2023-06-18T22:10:21.092Z,7.82
2023-06-18T22:13:09.461Z,8.48
2023-06-18T22:15:58.780Z,7.35
2023-06-18T22:18:47.769Z,8.52
2023-06-18T22:21:35.673Z,7.85
2023-06-18T22:24:23.728Z,7.45
2023-06-18T22:27:11.629Z,7.93
2023-06-18T22:30:00.559Z,8.00
2023-06-18T22:32:49.933Z,7.75
2023-06-18T22:35:38.748Z,7.95
2023-06-18T22:38:29.776Z,8.85
2023-06-18T22:41:18.244Z,8.55
2023-06-18T22:44:07.495Z,8.35
2023-06-18T22:46:55.411Z,8.77
2023-06-18T22:49:44.818Z,8.38
2023-06-18T22:52:32.723Z,8.52
2023-06-18T22:55:20.483Z,7.75
2023-06-18T22:58:09.598Z,8.68
2023-06-18T23:00:57.587Z,9.40
2023-06-18T23:03:45.690Z,8.95
2023-06-18T23:06:35.145Z,9.10
2023-06-18T23:09:23.220Z,9.02
2023-06-18T23:12:11.576Z,9.32
2023-06-18T23:14:59.357Z,9.50
2023-06-18T23:17:47.391Z,9.10
2023-06-18T23:20:35.422Z,8.63
2023-06-18T23:23:30.876Z,9.27
2023-06-18T23:26:20.765Z,10.07
2023-06-18T23:29:10.875Z,8.95
2023-06-18T23:31:59.103Z,8.68
2023-06-18T23:34:47.282Z,10.07
2023-06-18T23:37:36.673Z,9.43
2023-06-18T23:40:26.482Z,10.57
2023-06-18T23:43:14.666Z,10.48
2023-06-18T23:46:02.744Z,10.13
2023-06-18T23:48:50.740Z,9.45
2023-06-18T23:51:39.701Z,9.88
2023-06-18T23:54:27.654Z,9.90
2023-06-18T23:57:17.221Z,8.32
